sensor_id;sensor_type;location;lat;lon;timestamp;P1;durP1;ratioP1;P2;durP2;ratioP2
17207;SDS011;8720;48.488;9.202;2022-12-29T00:00:21;2.90;;;1.80;;
17207;SDS011;8720;48.488;9.202;2022-12-29T00:02:48;2.57;;;1.80;;
17207;SDS011;8720;48.488;9.202;2022-12-29T00:05:15;2.40;;;1.60;;
17207;SDS011;8720;48.488;9.202;2022-12-29T00:07:43;2.60;;;1.57;;
17207;SDS011;8720;48.488;9.202;2022-12-29T00:10:11;2.70;;;1.63;;
17207;SDS011;8720;48.488;9.202;2022-12-29T00:12:38;2.70;;;1.60;;
17207;SDS011;8720;48.488;9.202;2022-12-29T00:15:23;1.80;;;1.50;;
17207;SDS011;8720;48.488;9.202;2022-12-29T00:18:05;2.10;;;1.60;;
17207;SDS011;8720;48.488;9.202;2022-12-29T00:20:34;2.43;;;1.80;;
17207;SDS011;8720;48.488;9.202;2022-12-29T00:23:20;3.27;;;1.80;;
17207;SDS011;8720;48.488;9.202;2022-12-29T00:26:10;2.80;;;1.63;;
17207;SDS011;8720;48.488;9.202;2022-12-29T00:28:58;2.30;;;1.90;;
17207;SDS011;8720;48.488;9.202;2022-12-29T00:31:43;2.60;;;1.60;;
17207;SDS011;8720;48.488;9.202;2022-12-29T00:34:30;2.40;;;1.80;;
17207;SDS011;8720;48.488;9.202;2022-12-29T00:37:15;2.17;;;1.60;;
17207;SDS011;8720;48.488;9.202;2022-12-29T00:40:03;2.33;;;1.73;;
17207;SDS011;8720;48.488;9.202;2022-12-29T00:42:50;2.20;;;1.77;;
17207;SDS011;8720;48.488;9.202;2022-12-29T00:45:35;2.37;;;1.77;;
17207;SDS011;8720;48.488;9.202;2022-12-29T00:48:03;2.70;;;1.63;;
17207;SDS011;8720;48.488;9.202;2022-12-29T00:50:31;3.80;;;1.80;;
17207;SDS011;8720;48.488;9.202;2022-12-29T00:52:57;2.43;;;1.93;;
17207;SDS011;8720;48.488;9.202;2022-12-29T00:55:24;2.20;;;1.87;;
17207;SDS011;8720;48.488;9.202;2022-12-29T00:57:53;3.50;;;1.70;;
17207;SDS011;8720;48.488;9.202;2022-12-29T01:00:20;3.03;;;2.30;;
17207;SDS011;8720;48.488;9.202;2022-12-29T01:02:47;2.13;;;1.50;;
17207;SDS011;8720;48.488;9.202;2022-12-29T01:05:15;2.40;;;1.97;;
17207;SDS011;8720;48.488;9.202;2022-12-29T01:07:43;2.33;;;1.90;;
17207;SDS011;8720;48.488;9.202;2022-12-29T01:10:10;2.07;;;1.87;;
17207;SDS011;8720;48.488;9.202;2022-12-29T01:12:36;2.43;;;1.30;;
17207;SDS011;8720;48.488;9.202;2022-12-29T01:15:10;2.20;;;1.50;;
17207;SDS011;8720;48.488;9.202;2022-12-29T01:17:40;2.43;;;1.60;;
17207;SDS011;8720;48.488;9.202;2022-12-29T01:20:08;1.77;;;1.57;;
17207;SDS011;8720;48.488;9.202;2022-12-29T01:22:37;2.03;;;1.60;;
17207;SDS011;8720;48.488;9.202;2022-12-29T01:25:05;2.47;;;1.67;;
17207;SDS011;8720;48.488;9.202;2022-12-29T01:27:33;2.53;;;1.93;;
17207;SDS011;8720;48.488;9.202;2022-12-29T01:30:01;1.87;;;1.40;;
17207;SDS011;8720;48.488;9.202;2022-12-29T01:32:32;3.50;;;1.80;;
17207;SDS011;8720;48.488;9.202;2022-12-29T01:34:59;1.80;;;1.50;;
17207;SDS011;8720;48.488;9.202;2022-12-29T01:37:26;2.70;;;1.60;;
17207;SDS011;8720;48.488;9.202;2022-12-29T01:39:53;2.20;;;1.70;;
17207;SDS011;8720;48.488;9.202;2022-12-29T01:42:22;2.60;;;1.50;;
17207;SDS011;8720;48.488;9.202;2022-12-29T01:44:52;3.17;;;1.27;;
17207;SDS011;8720;48.488;9.202;2022-12-29T01:47:34;2.47;;;1.90;;
17207;SDS011;8720;48.488;9.202;2022-12-29T01:50:08;1.67;;;1.40;;
17207;SDS011;8720;48.488;9.202;2022-12-29T01:52:43;2.10;;;1.43;;
17207;SDS011;8720;48.488;9.202;2022-12-29T01:55:21;2.53;;;1.20;;
17207;SDS011;8720;48.488;9.202;2022-12-29T01:57:50;1.90;;;1.70;;
17207;SDS011;8720;48.488;9.202;2022-12-29T02:00:20;1.80;;;1.20;;
17207;SDS011;8720;48.488;9.202;2022-12-29T02:02:50;1.67;;;1.57;;
17207;SDS011;8720;48.488;9.202;2022-12-29T02:05:21;2.53;;;1.50;;
17207;SDS011;8720;48.488;9.202;2022-12-29T02:07:56;2.80;;;1.50;;
17207;SDS011;8720;48.488;9.202;2022-12-29T02:10:25;2.20;;;1.40;;
17207;SDS011;8720;48.488;9.202;2022-12-29T02:12:56;2.37;;;1.43;;
17207;SDS011;8720;48.488;9.202;2022-12-29T02:15:25;3.10;;;1.83;;
17207;SDS011;8720;48.488;9.202;2022-12-29T02:18:13;1.80;;;1.37;;
17207;SDS011;8720;48.488;9.202;2022-12-29T02:24:24;5.23;;;1.50;;
17207;SDS011;8720;48.488;9.202;2022-12-29T02:30:51;2.00;;;1.20;;
17207;SDS011;8720;48.488;9.202;2022-12-29T02:33:34;2.80;;;1.70;;
17207;SDS011;8720;48.488;9.202;2022-12-29T02:36:16;2.17;;;1.40;;
17207;SDS011;8720;48.488;9.202;2022-12-29T02:38:59;1.57;;;1.07;;
17207;SDS011;8720;48.488;9.202;2022-12-29T02:41:39;1.40;;;1.10;;
17207;SDS011;8720;48.488;9.202;2022-12-29T02:44:23;3.13;;;1.27;;
17207;SDS011;8720;48.488;9.202;2022-12-29T02:47:03;1.70;;;1.30;;
17207;SDS011;8720;48.488;9.202;2022-12-29T02:49:38;1.67;;;1.23;;
17207;SDS011;8720;48.488;9.202;2022-12-29T02:52:18;1.83;;;1.00;;
17207;SDS011;8720;48.488;9.202;2022-12-29T02:54:54;1.80;;;1.00;;
17207;SDS011;8720;48.488;9.202;2022-12-29T02:57:28;2.60;;;1.30;;
17207;SDS011;8720;48.488;9.202;2022-12-29T03:00:00;2.07;;;1.20;;
17207;SDS011;8720;48.488;9.202;2022-12-29T03:02:39;2.57;;;1.10;;
17207;SDS011;8720;48.488;9.202;2022-12-29T03:05:41;4.50;;;1.10;;
17207;SDS011;8720;48.488;9.202;2022-12-29T03:08:40;1.37;;;1.20;;
17207;SDS011;8720;48.488;9.202;2022-12-29T03:11:21;2.67;;;1.00;;
17207;SDS011;8720;48.488;9.202;2022-12-29T03:14:13;3.10;;;1.50;;
17207;SDS011;8720;48.488;9.202;2022-12-29T03:17:14;2.17;;;1.00;;
17207;SDS011;8720;48.488;9.202;2022-12-29T03:19:55;1.50;;;1.30;;
17207;SDS011;8720;48.488;9.202;2022-12-29T03:22:36;1.90;;;1.07;;
17207;SDS011;8720;48.488;9.202;2022-12-29T03:25:17;1.40;;;1.00;;
17207;SDS011;8720;48.488;9.202;2022-12-29T03:27:51;2.70;;;0.93;;
17207;SDS011;8720;48.488;9.202;2022-12-29T03:30:25;2.50;;;0.97;;
17207;SDS011;8720;48.488;9.202;2022-12-29T03:32:57;3.43;;;1.27;;
17207;SDS011;8720;48.488;9.202;2022-12-29T03:35:33;3.60;;;1.10;;
17207;SDS011;8720;48.488;9.202;2022-12-29T03:38:10;3.20;;;1.40;;
17207;SDS011;8720;48.488;9.202;2022-12-29T03:40:45;2.00;;;1.03;;
17207;SDS011;8720;48.488;9.202;2022-12-29T03:43:18;1.43;;;1.10;;
17207;SDS011;8720;48.488;9.202;2022-12-29T03:45:47;2.33;;;1.17;;
17207;SDS011;8720;48.488;9.202;2022-12-29T03:48:14;2.93;;;1.30;;
17207;SDS011;8720;48.488;9.202;2022-12-29T03:50:45;1.67;;;1.13;;
17207;SDS011;8720;48.488;9.202;2022-12-29T03:53:13;2.60;;;1.30;;
17207;SDS011;8720;48.488;9.202;2022-12-29T03:55:41;4.90;;;1.67;;
17207;SDS011;8720;48.488;9.202;2022-12-29T03:58:09;2.60;;;1.40;;
17207;SDS011;8720;48.488;9.202;2022-12-29T04:00:55;1.83;;;1.33;;
17207;SDS011;8720;48.488;9.202;2022-12-29T04:03:23;3.00;;;1.30;;
17207;SDS011;8720;48.488;9.202;2022-12-29T04:05:51;2.00;;;1.40;;
17207;SDS011;8720;48.488;9.202;2022-12-29T04:08:19;1.70;;;1.23;;
17207;SDS011;8720;48.488;9.202;2022-12-29T04:10:47;1.90;;;1.17;;
17207;SDS011;8720;48.488;9.202;2022-12-29T04:13:16;2.37;;;1.67;;
17207;SDS011;8720;48.488;9.202;2022-12-29T04:15:44;1.87;;;1.23;;
17207;SDS011;8720;48.488;9.202;2022-12-29T04:18:11;2.13;;;1.40;;
17207;SDS011;8720;48.488;9.202;2022-12-29T04:20:39;1.90;;;1.40;;
17207;SDS011;8720;48.488;9.202;2022-12-29T04:23:25;4.20;;;1.30;;
17207;SDS011;8720;48.488;9.202;2022-12-29T04:25:53;2.13;;;1.27;;
17207;SDS011;8720;48.488;9.202;2022-12-29T04:28:21;1.93;;;1.27;;
17207;SDS011;8720;48.488;9.202;2022-12-29T04:31:09;1.87;;;1.40;;
17207;SDS011;8720;48.488;9.202;2022-12-29T04:33:39;1.90;;;1.30;;
17207;SDS011;8720;48.488;9.202;2022-12-29T04:36:07;2.30;;;1.40;;
17207;SDS011;8720;48.488;9.202;2022-12-29T04:38:37;2.57;;;1.40;;
17207;SDS011;8720;48.488;9.202;2022-12-29T04:41:05;2.77;;;1.33;;
17207;SDS011;8720;48.488;9.202;2022-12-29T04:43:35;2.27;;;1.57;;
17207;SDS011;8720;48.488;9.202;2022-12-29T04:46:22;2.37;;;1.60;;
17207;SDS011;8720;48.488;9.202;2022-12-29T04:49:03;3.57;;;1.47;;
17207;SDS011;8720;48.488;9.202;2022-12-29T04:51:59;1.70;;;1.10;;
17207;SDS011;8720;48.488;9.202;2022-12-29T04:54:28;2.60;;;1.57;;
17207;SDS011;8720;48.488;9.202;2022-12-29T04:57:10;2.20;;;1.30;;
17207;SDS011;8720;48.488;9.202;2022-12-29T04:59:38;3.23;;;1.53;;
17207;SDS011;8720;48.488;9.202;2022-12-29T05:02:07;2.70;;;1.53;;
17207;SDS011;8720;48.488;9.202;2022-12-29T05:04:35;1.40;;;1.20;;
17207;SDS011;8720;48.488;9.202;2022-12-29T05:07:02;3.77;;;1.47;;
17207;SDS011;8720;48.488;9.202;2022-12-29T05:09:30;1.90;;;1.40;;
17207;SDS011;8720;48.488;9.202;2022-12-29T05:11:59;1.83;;;1.40;;
17207;SDS011;8720;48.488;9.202;2022-12-29T05:14:28;3.40;;;1.60;;
17207;SDS011;8720;48.488;9.202;2022-12-29T05:16:55;1.90;;;1.40;;
17207;SDS011;8720;48.488;9.202;2022-12-29T05:19:24;1.70;;;1.20;;
17207;SDS011;8720;48.488;9.202;2022-12-29T05:21:52;2.90;;;1.67;;
17207;SDS011;8720;48.488;9.202;2022-12-29T05:24:20;1.97;;;1.40;;
17207;SDS011;8720;48.488;9.202;2022-12-29T05:26:48;1.57;;;1.30;;
17207;SDS011;8720;48.488;9.202;2022-12-29T05:29:35;1.90;;;1.50;;
17207;SDS011;8720;48.488;9.202;2022-12-29T05:32:02;4.60;;;1.50;;
17207;SDS011;8720;48.488;9.202;2022-12-29T05:34:30;2.40;;;1.40;;
17207;SDS011;8720;48.488;9.202;2022-12-29T05:36:57;1.43;;;1.30;;
17207;SDS011;8720;48.488;9.202;2022-12-29T05:39:24;2.60;;;1.33;;
17207;SDS011;8720;48.488;9.202;2022-12-29T05:41:58;2.13;;;1.23;;
17207;SDS011;8720;48.488;9.202;2022-12-29T05:44:47;1.63;;;1.40;;
17207;SDS011;8720;48.488;9.202;2022-12-29T05:47:23;1.93;;;1.50;;
17207;SDS011;8720;48.488;9.202;2022-12-29T05:50:04;1.73;;;1.47;;
17207;SDS011;8720;48.488;9.202;2022-12-29T05:52:52;1.97;;;1.50;;
17207;SDS011;8720;48.488;9.202;2022-12-29T05:55:19;2.03;;;1.37;;
17207;SDS011;8720;48.488;9.202;2022-12-29T05:57:51;1.60;;;1.30;;
17207;SDS011;8720;48.488;9.202;2022-12-29T06:00:18;2.37;;;1.30;;
17207;SDS011;8720;48.488;9.202;2022-12-29T06:02:46;2.87;;;1.43;;
17207;SDS011;8720;48.488;9.202;2022-12-29T06:05:15;2.23;;;1.33;;
17207;SDS011;8720;48.488;9.202;2022-12-29T06:07:42;2.63;;;1.50;;
17207;SDS011;8720;48.488;9.202;2022-12-29T06:10:12;1.70;;;1.30;;
17207;SDS011;8720;48.488;9.202;2022-12-29T06:12:44;1.20;;;1.07;;
17207;SDS011;8720;48.488;9.202;2022-12-29T06:15:13;3.97;;;1.20;;
17207;SDS011;8720;48.488;9.202;2022-12-29T06:17:42;2.10;;;1.20;;
17207;SDS011;8720;48.488;9.202;2022-12-29T06:20:09;1.60;;;1.27;;
17207;SDS011;8720;48.488;9.202;2022-12-29T06:22:37;1.70;;;1.20;;
17207;SDS011;8720;48.488;9.202;2022-12-29T06:25:05;3.40;;;1.20;;
17207;SDS011;8720;48.488;9.202;2022-12-29T06:27:34;3.57;;;1.53;;
17207;SDS011;8720;48.488;9.202;2022-12-29T06:30:01;2.47;;;1.50;;
17207;SDS011;8720;48.488;9.202;2022-12-29T06:32:31;2.20;;;1.53;;
17207;SDS011;8720;48.488;9.202;2022-12-29T06:35:04;1.33;;;1.13;;
17207;SDS011;8720;48.488;9.202;2022-12-29T06:37:37;1.43;;;1.10;;
17207;SDS011;8720;48.488;9.202;2022-12-29T06:40:05;3.70;;;1.40;;
17207;SDS011;8720;48.488;9.202;2022-12-29T06:42:51;1.60;;;1.30;;
17207;SDS011;8720;48.488;9.202;2022-12-29T06:45:37;1.70;;;1.20;;
17207;SDS011;8720;48.488;9.202;2022-12-29T06:48:07;1.50;;;1.00;;
17207;SDS011;8720;48.488;9.202;2022-12-29T06:50:34;2.87;;;1.30;;
17207;SDS011;8720;48.488;9.202;2022-12-29T06:53:01;1.40;;;1.17;;
17207;SDS011;8720;48.488;9.202;2022-12-29T06:55:29;3.57;;;1.27;;
17207;SDS011;8720;48.488;9.202;2022-12-29T06:57:56;1.70;;;1.20;;
17207;SDS011;8720;48.488;9.202;2022-12-29T07:00:26;2.63;;;1.03;;
17207;SDS011;8720;48.488;9.202;2022-12-29T07:02:54;1.87;;;1.20;;
17207;SDS011;8720;48.488;9.202;2022-12-29T07:05:24;1.50;;;1.20;;
17207;SDS011;8720;48.488;9.202;2022-12-29T07:07:53;1.40;;;0.93;;
17207;SDS011;8720;48.488;9.202;2022-12-29T07:10:20;1.63;;;1.33;;
17207;SDS011;8720;48.488;9.202;2022-12-29T07:12:49;1.50;;;1.20;;
17207;SDS011;8720;48.488;9.202;2022-12-29T07:15:16;1.90;;;1.13;;
17207;SDS011;8720;48.488;9.202;2022-12-29T07:17:43;2.00;;;1.47;;
17207;SDS011;8720;48.488;9.202;2022-12-29T07:20:11;1.73;;;1.10;;
17207;SDS011;8720;48.488;9.202;2022-12-29T07:22:40;2.90;;;1.33;;
17207;SDS011;8720;48.488;9.202;2022-12-29T07:25:08;3.50;;;1.53;;
17207;SDS011;8720;48.488;9.202;2022-12-29T07:27:35;3.13;;;2.00;;
17207;SDS011;8720;48.488;9.202;2022-12-29T07:30:03;1.57;;;1.47;;
17207;SDS011;8720;48.488;9.202;2022-12-29T07:32:32;1.50;;;1.20;;
17207;SDS011;8720;48.488;9.202;2022-12-29T07:34:59;2.20;;;1.20;;
17207;SDS011;8720;48.488;9.202;2022-12-29T07:37:27;1.53;;;1.17;;
17207;SDS011;8720;48.488;9.202;2022-12-29T07:39:56;1.50;;;1.10;;
17207;SDS011;8720;48.488;9.202;2022-12-29T07:42:23;1.50;;;1.00;;
17207;SDS011;8720;48.488;9.202;2022-12-29T07:44:51;2.33;;;1.20;;
17207;SDS011;8720;48.488;9.202;2022-12-29T07:47:25;1.30;;;1.00;;
17207;SDS011;8720;48.488;9.202;2022-12-29T07:49:53;2.13;;;1.10;;
17207;SDS011;8720;48.488;9.202;2022-12-29T07:52:20;2.60;;;1.30;;
17207;SDS011;8720;48.488;9.202;2022-12-29T07:54:47;4.10;;;1.27;;
17207;SDS011;8720;48.488;9.202;2022-12-29T07:57:16;1.30;;;1.17;;
17207;SDS011;8720;48.488;9.202;2022-12-29T07:59:43;2.10;;;1.13;;
17207;SDS011;8720;48.488;9.202;2022-12-29T08:02:10;4.10;;;1.20;;
17207;SDS011;8720;48.488;9.202;2022-12-29T08:04:38;1.50;;;1.30;;
17207;SDS011;8720;48.488;9.202;2022-12-29T08:07:05;1.97;;;1.40;;
17207;SDS011;8720;48.488;9.202;2022-12-29T08:09:32;2.40;;;1.30;;
17207;SDS011;8720;48.488;9.202;2022-12-29T08:12:00;3.80;;;1.40;;
17207;SDS011;8720;48.488;9.202;2022-12-29T08:14:28;3.80;;;2.07;;
17207;SDS011;8720;48.488;9.202;2022-12-29T08:16:56;2.90;;;1.60;;
17207;SDS011;8720;48.488;9.202;2022-12-29T08:19:23;1.40;;;1.20;;
17207;SDS011;8720;48.488;9.202;2022-12-29T08:21:50;3.10;;;1.23;;
17207;SDS011;8720;48.488;9.202;2022-12-29T08:24:18;4.87;;;1.27;;
17207;SDS011;8720;48.488;9.202;2022-12-29T08:26:46;1.50;;;1.23;;
17207;SDS011;8720;48.488;9.202;2022-12-29T08:29:13;3.23;;;1.67;;
17207;SDS011;8720;48.488;9.202;2022-12-29T08:31:42;2.00;;;1.30;;
17207;SDS011;8720;48.488;9.202;2022-12-29T08:34:10;1.43;;;1.10;;
17207;SDS011;8720;48.488;9.202;2022-12-29T08:36:38;1.83;;;1.30;;
17207;SDS011;8720;48.488;9.202;2022-12-29T08:39:05;2.20;;;1.30;;
17207;SDS011;8720;48.488;9.202;2022-12-29T08:41:32;2.33;;;1.33;;
17207;SDS011;8720;48.488;9.202;2022-12-29T08:43:59;1.27;;;1.03;;
17207;SDS011;8720;48.488;9.202;2022-12-29T08:46:27;1.87;;;1.37;;
17207;SDS011;8720;48.488;9.202;2022-12-29T08:48:56;2.27;;;1.33;;
17207;SDS011;8720;48.488;9.202;2022-12-29T08:51:23;2.53;;;1.33;;
17207;SDS011;8720;48.488;9.202;2022-12-29T08:53:51;2.53;;;1.20;;
17207;SDS011;8720;48.488;9.202;2022-12-29T08:56:19;2.00;;;1.13;;
17207;SDS011;8720;48.488;9.202;2022-12-29T08:58:50;4.80;;;1.40;;
17207;SDS011;8720;48.488;9.202;2022-12-29T09:01:20;2.10;;;1.20;;
17207;SDS011;8720;48.488;9.202;2022-12-29T09:03:48;1.70;;;1.37;;
17207;SDS011;8720;48.488;9.202;2022-12-29T09:06:17;3.37;;;1.63;;
17207;SDS011;8720;48.488;9.202;2022-12-29T09:08:44;2.00;;;1.37;;
17207;SDS011;8720;48.488;9.202;2022-12-29T09:11:13;2.10;;;1.43;;
17207;SDS011;8720;48.488;9.202;2022-12-29T09:13:42;3.57;;;1.20;;
17207;SDS011;8720;48.488;9.202;2022-12-29T09:16:10;1.50;;;1.33;;
17207;SDS011;8720;48.488;9.202;2022-12-29T09:18:38;3.80;;;1.30;;
17207;SDS011;8720;48.488;9.202;2022-12-29T09:21:06;4.60;;;1.23;;
17207;SDS011;8720;48.488;9.202;2022-12-29T09:23:38;1.63;;;1.13;;
17207;SDS011;8720;48.488;9.202;2022-12-29T09:26:05;1.73;;;1.27;;
17207;SDS011;8720;48.488;9.202;2022-12-29T09:28:33;1.50;;;1.20;;
17207;SDS011;8720;48.488;9.202;2022-12-29T09:31:02;1.70;;;1.20;;
17207;SDS011;8720;48.488;9.202;2022-12-29T09:33:29;1.70;;;1.30;;
17207;SDS011;8720;48.488;9.202;2022-12-29T09:35:59;1.80;;;1.40;;
17207;SDS011;8720;48.488;9.202;2022-12-29T09:38:27;1.93;;;1.20;;
17207;SDS011;8720;48.488;9.202;2022-12-29T09:40:57;1.67;;;1.40;;
17207;SDS011;8720;48.488;9.202;2022-12-29T09:43:38;3.37;;;1.30;;
17207;SDS011;8720;48.488;9.202;2022-12-29T09:46:31;1.60;;;1.13;;
17207;SDS011;8720;48.488;9.202;2022-12-29T09:49:07;1.63;;;1.30;;
17207;SDS011;8720;48.488;9.202;2022-12-29T09:51:50;2.10;;;1.67;;
17207;SDS011;8720;48.488;9.202;2022-12-29T09:54:23;1.53;;;1.30;;
17207;SDS011;8720;48.488;9.202;2022-12-29T09:57:10;2.03;;;1.10;;
17207;SDS011;8720;48.488;9.202;2022-12-29T09:59:48;1.93;;;1.17;;
17207;SDS011;8720;48.488;9.202;2022-12-29T10:02:29;1.47;;;1.23;;
17207;SDS011;8720;48.488;9.202;2022-12-29T10:05:04;2.80;;;1.37;;
17207;SDS011;8720;48.488;9.202;2022-12-29T10:07:45;1.90;;;1.20;;
17207;SDS011;8720;48.488;9.202;2022-12-29T10:10:30;1.40;;;1.20;;
17207;SDS011;8720;48.488;9.202;2022-12-29T10:13:14;1.50;;;1.33;;
17207;SDS011;8720;48.488;9.202;2022-12-29T10:15:56;2.63;;;2.00;;
17207;SDS011;8720;48.488;9.202;2022-12-29T10:18:40;2.87;;;1.53;;
17207;SDS011;8720;48.488;9.202;2022-12-29T10:21:44;1.60;;;1.50;;
17207;SDS011;8720;48.488;9.202;2022-12-29T10:24:26;2.03;;;1.10;;
17207;SDS011;8720;48.488;9.202;2022-12-29T10:27:01;1.90;;;1.27;;
17207;SDS011;8720;48.488;9.202;2022-12-29T10:29:33;1.70;;;1.50;;
17207;SDS011;8720;48.488;9.202;2022-12-29T10:32:07;2.23;;;1.00;;
17207;SDS011;8720;48.488;9.202;2022-12-29T10:34:49;1.50;;;1.10;;
17207;SDS011;8720;48.488;9.202;2022-12-29T10:37:25;1.70;;;1.20;;
17207;SDS011;8720;48.488;9.202;2022-12-29T10:40:11;1.70;;;1.23;;
17207;SDS011;8720;48.488;9.202;2022-12-29T10:42:50;2.83;;;1.50;;
17207;SDS011;8720;48.488;9.202;2022-12-29T10:45:22;1.73;;;1.10;;
17207;SDS011;8720;48.488;9.202;2022-12-29T10:47:57;2.10;;;1.10;;
17207;SDS011;8720;48.488;9.202;2022-12-29T10:50:31;1.30;;;1.20;;
17207;SDS011;8720;48.488;9.202;2022-12-29T10:53:00;3.83;;;1.40;;
17207;SDS011;8720;48.488;9.202;2022-12-29T10:55:32;1.87;;;1.10;;
17207;SDS011;8720;48.488;9.202;2022-12-29T10:58:04;1.77;;;1.20;;
17207;SDS011;8720;48.488;9.202;2022-12-29T11:00:37;2.83;;;1.40;;
17207;SDS011;8720;48.488;9.202;2022-12-29T11:06:00;1.73;;;1.13;;
17207;SDS011;8720;48.488;9.202;2022-12-29T11:08:35;2.30;;;1.20;;
17207;SDS011;8720;48.488;9.202;2022-12-29T11:11:08;1.40;;;1.20;;
17207;SDS011;8720;48.488;9.202;2022-12-29T11:13:46;1.30;;;1.20;;
17207;SDS011;8720;48.488;9.202;2022-12-29T11:16:22;2.77;;;1.40;;
17207;SDS011;8720;48.488;9.202;2022-12-29T11:18:57;2.57;;;1.30;;
17207;SDS011;8720;48.488;9.202;2022-12-29T11:21:31;2.03;;;1.80;;
17207;SDS011;8720;48.488;9.202;2022-12-29T11:24:05;2.03;;;1.40;;
17207;SDS011;8720;48.488;9.202;2022-12-29T11:26:49;2.37;;;1.20;;
17207;SDS011;8720;48.488;9.202;2022-12-29T11:29:26;2.07;;;1.03;;
17207;SDS011;8720;48.488;9.202;2022-12-29T11:32:10;1.30;;;1.10;;
17207;SDS011;8720;48.488;9.202;2022-12-29T11:34:43;3.67;;;1.70;;
17207;SDS011;8720;48.488;9.202;2022-12-29T11:37:11;1.80;;;1.40;;
17207;SDS011;8720;48.488;9.202;2022-12-29T11:39:45;1.53;;;1.40;;
17207;SDS011;8720;48.488;9.202;2022-12-29T11:42:19;3.37;;;1.23;;
17207;SDS011;8720;48.488;9.202;2022-12-29T11:44:50;1.53;;;1.17;;
17207;SDS011;8720;48.488;9.202;2022-12-29T11:47:25;1.60;;;1.40;;
17207;SDS011;8720;48.488;9.202;2022-12-29T11:49:56;4.17;;;1.40;;
17207;SDS011;8720;48.488;9.202;2022-12-29T11:52:26;2.67;;;1.00;;
17207;SDS011;8720;48.488;9.202;2022-12-29T11:55:00;2.70;;;1.10;;
17207;SDS011;8720;48.488;9.202;2022-12-29T11:57:32;2.47;;;1.40;;
17207;SDS011;8720;48.488;9.202;2022-12-29T12:00:03;2.60;;;1.57;;
17207;SDS011;8720;48.488;9.202;2022-12-29T12:02:44;1.67;;;1.30;;
17207;SDS011;8720;48.488;9.202;2022-12-29T12:05:24;2.70;;;1.50;;
17207;SDS011;8720;48.488;9.202;2022-12-29T12:08:05;1.43;;;1.27;;
17207;SDS011;8720;48.488;9.202;2022-12-29T12:10:42;2.90;;;2.60;;
17207;SDS011;8720;48.488;9.202;2022-12-29T12:13:17;3.80;;;2.37;;
17207;SDS011;8720;48.488;9.202;2022-12-29T12:15:52;2.47;;;1.60;;
17207;SDS011;8720;48.488;9.202;2022-12-29T12:18:40;2.03;;;1.20;;
17207;SDS011;8720;48.488;9.202;2022-12-29T12:21:15;1.73;;;1.30;;
17207;SDS011;8720;48.488;9.202;2022-12-29T12:24:00;1.50;;;1.10;;
17207;SDS011;8720;48.488;9.202;2022-12-29T12:27:07;2.10;;;1.90;;
17207;SDS011;8720;48.488;9.202;2022-12-29T12:29:43;1.57;;;1.47;;
17207;SDS011;8720;48.488;9.202;2022-12-29T12:32:24;3.23;;;1.67;;
17207;SDS011;8720;48.488;9.202;2022-12-29T12:35:11;2.67;;;1.80;;
17207;SDS011;8720;48.488;9.202;2022-12-29T12:37:51;2.73;;;1.53;;
17207;SDS011;8720;48.488;9.202;2022-12-29T12:40:52;2.50;;;1.43;;
17207;SDS011;8720;48.488;9.202;2022-12-29T12:43:35;1.80;;;1.43;;
17207;SDS011;8720;48.488;9.202;2022-12-29T12:53:02;2.40;;;1.90;;
17207;SDS011;8720;48.488;9.202;2022-12-29T12:55:57;2.40;;;2.13;;
17207;SDS011;8720;48.488;9.202;2022-12-29T12:58:53;2.87;;;2.00;;
17207;SDS011;8720;48.488;9.202;2022-12-29T13:01:33;2.13;;;1.70;;
17207;SDS011;8720;48.488;9.202;2022-12-29T13:07:13;2.80;;;2.03;;
17207;SDS011;8720;48.488;9.202;2022-12-29T13:09:57;2.40;;;1.90;;
17207;SDS011;8720;48.488;9.202;2022-12-29T13:12:49;2.97;;;1.40;;
17207;SDS011;8720;48.488;9.202;2022-12-29T13:15:36;1.60;;;1.40;;
17207;SDS011;8720;48.488;9.202;2022-12-29T13:18:17;3.90;;;1.90;;
17207;SDS011;8720;48.488;9.202;2022-12-29T13:20:59;1.70;;;1.50;;
17207;SDS011;8720;48.488;9.202;2022-12-29T13:23:39;2.43;;;1.40;;
17207;SDS011;8720;48.488;9.202;2022-12-29T13:26:16;2.23;;;1.43;;
17207;SDS011;8720;48.488;9.202;2022-12-29T13:28:52;2.60;;;1.53;;
17207;SDS011;8720;48.488;9.202;2022-12-29T13:31:32;1.60;;;1.23;;
17207;SDS011;8720;48.488;9.202;2022-12-29T13:34:13;1.60;;;1.50;;
17207;SDS011;8720;48.488;9.202;2022-12-29T13:36:56;1.90;;;1.70;;
17207;SDS011;8720;48.488;9.202;2022-12-29T13:39:32;1.37;;;1.20;;
17207;SDS011;8720;48.488;9.202;2022-12-29T13:42:05;1.60;;;1.33;;
17207;SDS011;8720;48.488;9.202;2022-12-29T13:44:35;2.57;;;1.60;;
17207;SDS011;8720;48.488;9.202;2022-12-29T13:47:13;3.37;;;1.60;;
17207;SDS011;8720;48.488;9.202;2022-12-29T13:49:51;3.10;;;1.70;;
17207;SDS011;8720;48.488;9.202;2022-12-29T13:52:21;2.60;;;1.70;;
17207;SDS011;8720;48.488;9.202;2022-12-29T13:55:06;3.10;;;1.43;;
17207;SDS011;8720;48.488;9.202;2022-12-29T13:57:48;2.00;;;1.60;;
17207;SDS011;8720;48.488;9.202;2022-12-29T14:00:25;4.10;;;1.50;;
17207;SDS011;8720;48.488;9.202;2022-12-29T14:03:10;2.10;;;1.90;;
17207;SDS011;8720;48.488;9.202;2022-12-29T14:06:03;2.00;;;1.80;;
17207;SDS011;8720;48.488;9.202;2022-12-29T14:08:41;2.33;;;1.83;;
17207;SDS011;8720;48.488;9.202;2022-12-29T14:11:11;3.93;;;2.00;;
17207;SDS011;8720;48.488;9.202;2022-12-29T14:13:44;3.50;;;2.27;;
17207;SDS011;8720;48.488;9.202;2022-12-29T14:16:25;3.40;;;2.00;;
17207;SDS011;8720;48.488;9.202;2022-12-29T14:18:57;2.47;;;1.50;;
17207;SDS011;8720;48.488;9.202;2022-12-29T14:21:36;2.57;;;1.40;;
17207;SDS011;8720;48.488;9.202;2022-12-29T14:33:26;1.70;;;1.50;;
17207;SDS011;8720;48.488;9.202;2022-12-29T14:35:56;1.93;;;1.47;;
17207;SDS011;8720;48.488;9.202;2022-12-29T14:38:49;4.60;;;1.60;;
17207;SDS011;8720;48.488;9.202;2022-12-29T14:41:17;3.03;;;1.77;;
17207;SDS011;8720;48.488;9.202;2022-12-29T14:44:01;1.70;;;1.60;;
17207;SDS011;8720;48.488;9.202;2022-12-29T14:46:44;2.17;;;1.50;;
17207;SDS011;8720;48.488;9.202;2022-12-29T14:49:21;3.03;;;2.57;;
17207;SDS011;8720;48.488;9.202;2022-12-29T14:51:53;1.47;;;1.20;;
17207;SDS011;8720;48.488;9.202;2022-12-29T14:54:46;1.93;;;1.73;;
17207;SDS011;8720;48.488;9.202;2022-12-29T14:57:20;2.73;;;1.73;;
17207;SDS011;8720;48.488;9.202;2022-12-29T15:00:01;2.07;;;1.37;;
17207;SDS011;8720;48.488;9.202;2022-12-29T15:02:47;1.50;;;1.40;;
17207;SDS011;8720;48.488;9.202;2022-12-29T15:05:31;2.03;;;1.83;;
17207;SDS011;8720;48.488;9.202;2022-12-29T15:08:04;4.53;;;3.10;;
17207;SDS011;8720;48.488;9.202;2022-12-29T15:10:42;7.77;;;4.87;;
17207;SDS011;8720;48.488;9.202;2022-12-29T15:13:21;3.37;;;3.03;;
17207;SDS011;8720;48.488;9.202;2022-12-29T15:15:53;5.97;;;4.97;;
17207;SDS011;8720;48.488;9.202;2022-12-29T15:18:25;3.80;;;2.63;;
17207;SDS011;8720;48.488;9.202;2022-12-29T15:20:57;6.23;;;2.43;;
17207;SDS011;8720;48.488;9.202;2022-12-29T15:23:27;2.70;;;2.17;;
17207;SDS011;8720;48.488;9.202;2022-12-29T15:25:58;1.87;;;1.67;;
17207;SDS011;8720;48.488;9.202;2022-12-29T15:28:37;3.13;;;2.37;;
17207;SDS011;8720;48.488;9.202;2022-12-29T15:31:15;3.00;;;2.20;;
17207;SDS011;8720;48.488;9.202;2022-12-29T15:33:52;3.40;;;2.30;;
17207;SDS011;8720;48.488;9.202;2022-12-29T15:36:43;2.80;;;1.90;;
17207;SDS011;8720;48.488;9.202;2022-12-29T15:39:27;2.57;;;1.47;;
17207;SDS011;8720;48.488;9.202;2022-12-29T15:42:05;2.10;;;1.33;;
17207;SDS011;8720;48.488;9.202;2022-12-29T15:44:53;2.20;;;1.40;;
17207;SDS011;8720;48.488;9.202;2022-12-29T15:47:31;2.00;;;1.43;;
17207;SDS011;8720;48.488;9.202;2022-12-29T15:50:03;1.85;;;1.60;;
17207;SDS011;8720;48.488;9.202;2022-12-29T15:52:42;2.60;;;1.40;;
17207;SDS011;8720;48.488;9.202;2022-12-29T15:55:18;2.20;;;1.30;;
17207;SDS011;8720;48.488;9.202;2022-12-29T15:58:03;1.60;;;1.50;;
17207;SDS011;8720;48.488;9.202;2022-12-29T16:00:46;1.83;;;1.30;;
17207;SDS011;8720;48.488;9.202;2022-12-29T16:03:27;2.77;;;2.17;;
17207;SDS011;8720;48.488;9.202;2022-12-29T16:06:08;1.37;;;1.10;;
17207;SDS011;8720;48.488;9.202;2022-12-29T16:08:58;1.60;;;1.20;;
17207;SDS011;8720;48.488;9.202;2022-12-29T16:11:33;3.90;;;1.77;;
17207;SDS011;8720;48.488;9.202;2022-12-29T16:14:06;1.50;;;1.30;;